Terminal Aerodrome Forecast
Issued by NWS Huntsville, AL

Home | Current Version | Previous Version | Text Only | Print | Product List | Glossary On
Versions: 1 2 3 4 5 6 7 8 9 10 11 12 13 14 15
000
FTUS44 KHUN 260545 CCA
TAFHSV
TAF COR
KHSV 260545Z 2606/2706 00000KT P6SM SKC
      TEMPO 2607/2610 4SM BR
     FM261000 00000KT 4SM BR SKC
      TEMPO 2610/2613 2SM BR
     FM261300 VRB05KT P6SM SKC=

USA.gov is the U.S. government's official web portal to all federal, state and local government web resources and services.